Aérodrome :
LOGIN :

S'inscrire | Disclaimer

   EN    FR    IT 

 










Légende :    VFR   VFR Marginal   IFR   IFR Intensif   IFR Très Intensif
Visi : 
Plafond : 
>= 8 km
>= 3000ft
5 à 8 km
1000 à 3000 ft
1500m à 5 km
500 à 1000 ft
800 à 1500m
200 à 500 ft
< 800m
< 200 ft
Symboles :   Orages  Brouillard  Fortes neiges  Fortes précipitations  Vent > 20 kt
SIGMETs :   Divers  Orages  Givrage  Turbulence  Onde Orograph.  Cendres Volcan.






- Altitude de l'aérodrome : 36 ft
- Code IATA : RIX


EVRA - Riga

DERNIER METAR :
  • 222250Z 15011KT CAVOK M01/M09 Q1028 R18/090095 NOSIG

METARs EXPIRÉS :
  • 222220Z 15010KT CAVOK M01/M09 Q1028 R18/090095 NOSIG
  • 222150Z 15010KT CAVOK M01/M09 Q1028 R18/090095 NOSIG
  • 222120Z 15012KT CAVOK M01/M09 Q1028 R18/090095 NOSIG
  • 222050Z 15012KT CAVOK M01/M08 Q1028 R18/090095 NOSIG
  • 222020Z 15010KT CAVOK M01/M07 Q1028 R18/090095 NOSIG

TAF TAF EVRA
Valide du 22 à 21h jusqu'au 23 à 21h UTC


222001Z 2221/2321 14010KT 9999 SCT020



MET'MAP, la Météo Aéronautique d'un coup d'oeil ! - Copyright ORBIFLY Décembre 2007 - Disclaimer

ORBIFLY MET'MAP TEAM :

Programmation & Développement : Alexandra Zaïnal
Conception & Développement : Baudouin d'Aumeries
Co-Programmation & Développement : Marc-Olivier Méhu
Soutien technique & logistique : Manuel Goepfert

Contact : metmap@orbifly.com




SOURCES & CREDITS :

   NOAA